Terminal Aerodrome Forecast
Issued by NWS

Home | Current Version | Previous Version | Text Only | Print | Product List | Glossary On
Versions: 1 2 3 4 5 6 7 8 9 10 11 12 13 14
699
FTUS44 KBMX 230520
TAFMGM
TAF
KMGM 230520Z 2306/2406 02007KT P6SM SCT060 BKN120
     FM231200 08008KT P6SM SCT025
     FM231600 10011G18KT P6SM BKN035
     FM240000 09007KT P6SM BKN050=

USA.gov is the U.S. government's official web portal to all federal, state and local government web resources and services.